Time;durP1;ratioP1;P1;durP2;ratioP2;P2;SDS_P1;SDS_P2;PMS_P1;PMS_P2;Temp;Humidity;BMP_temperature;BMP_pressure;BME280_temperature;BME280_humidity;BME280_pressure;Samples;Min_cycle;Max_cycle;Signal;HPM_P1;HPM_P2
2021/03/21 00:01:59;;;;;;;4.38;2.40;;;;;;;2.87;70.39;93661.25;5092566;28;20394;-73
2021/03/21 00:04:24;;;;;;;5.22;2.75;;;;;;;2.83;70.46;93667.31;5092408;28;20032;-73
2021/03/21 00:06:50;;;;;;;4.80;2.67;;;;;;;2.86;70.50;93682.59;5092626;28;20100;-73
2021/03/21 00:09:15;;;;;;;4.13;2.50;;;;;;;2.88;70.30;93676.00;5091797;28;20020;-73
2021/03/21 00:11:41;;;;;;;2.97;1.75;;;;;;;2.87;70.37;93663.91;5091615;28;20091;-73
2021/03/21 00:14:06;;;;;;;4.05;2.40;;;;;;;2.85;70.33;93663.38;5091832;28;20539;-73
2021/03/21 00:16:34;;;;;;;3.42;1.88;;;;;;;2.84;70.62;93663.66;5091638;28;20024;-73
2021/03/21 00:18:59;;;;;;;3.47;2.17;;;;;;;2.81;70.39;93655.22;5091671;28;20475;-73
2021/03/21 00:21:25;;;;;;;3.97;1.77;;;;;;;2.83;70.60;93676.03;5092475;28;20040;-73
2021/03/21 00:23:51;;;;;;;4.22;2.03;;;;;;;2.81;70.41;93673.66;5091592;28;20481;-73
2021/03/21 00:26:17;;;;;;;4.10;2.10;;;;;;;2.87;70.23;93652.56;5092792;28;20690;-73
2021/03/21 00:28:43;;;;;;;4.45;2.15;;;;;;;2.88;70.35;93660.19;5092033;28;20028;-73
2021/03/21 00:31:12;;;;;;;2.80;1.95;;;;;;;2.90;71.14;93652.81;5091324;28;20031;-73
2021/03/21 00:33:38;;;;;;;6.50;2.08;;;;;;;2.87;70.83;93642.84;5091392;28;20170;-73
2021/03/21 00:36:06;;;;;;;3.28;1.90;;;;;;;2.91;70.34;93638.63;5091384;28;20415;-73
2021/03/21 00:38:39;;;;;;;7.25;2.85;;;;;;;2.90;70.27;93615.97;5091478;28;20032;-72
2021/03/21 00:41:05;;;;;;;2.90;1.88;;;;;;;2.90;70.22;93628.34;5091291;28;20170;-72
2021/03/21 00:43:31;;;;;;;4.05;2.10;;;;;;;2.93;70.33;93625.97;5091271;28;20057;-72
2021/03/21 00:45:57;;;;;;;8.25;2.25;;;;;;;2.92;70.02;93629.63;5092474;28;20031;-72
2021/03/21 00:48:26;;;;;;;5.50;1.98;;;;;;;2.90;70.09;93623.06;5091184;28;20505;-72
2021/03/21 00:50:52;;;;;;;3.10;1.90;;;;;;;2.93;70.12;93630.41;5091336;28;20042;-72
2021/03/21 00:53:19;;;;;;;3.67;1.80;;;;;;;2.91;70.08;93622.81;5090744;28;20043;-72
2021/03/21 00:55:45;;;;;;;3.42;1.95;;;;;;;2.90;70.23;93629.13;5092593;28;20489;-73
2021/03/21 00:58:11;;;;;;;4.82;1.83;;;;;;;2.86;69.82;93636.00;5092030;28;20106;-73
2021/03/21 01:00:42;;;;;;;3.67;1.83;;;;;;;2.84;70.12;93634.69;5092323;28;20498;-73
2021/03/21 01:03:09;;;;;;;3.28;1.92;;;;;;;2.84;70.15;93627.56;5091051;28;20032;-74
2021/03/21 01:05:36;;;;;;;3.72;1.83;;;;;;;2.87;69.89;93642.84;5091047;28;20395;-73
2021/03/21 01:08:05;;;;;;;3.72;1.65;;;;;;;2.84;69.98;93600.47;5092272;28;20509;-74
2021/03/21 01:10:35;;;;;;;3.42;1.67;;;;;;;2.87;70.06;93634.94;5090832;28;20095;-74
2021/03/21 01:13:02;;;;;;;3.65;1.75;;;;;;;2.87;69.64;93619.16;5091170;28;20444;-73
2021/03/21 01:15:29;;;;;;;2.10;1.40;;;;;;;2.86;69.87;93616.78;5090498;28;20097;-73
2021/03/21 01:17:57;;;;;;;2.80;1.35;;;;;;;2.85;69.85;93629.16;5090850;28;20078;-73
2021/03/21 01:20:26;;;;;;;2.35;1.08;;;;;;;2.80;70.05;93610.75;5090462;28;20055;-73
2021/03/21 01:22:52;;;;;;;4.57;1.17;;;;;;;2.75;70.12;93582.63;5090559;28;20056;-73
2021/03/21 01:25:22;;;;;;;2.50;1.08;;;;;;;2.78;69.91;93582.06;5091685;28;20074;-73
2021/03/21 01:27:48;;;;;;;2.45;1.27;;;;;;;2.75;69.95;93595.00;5090180;28;20031;-73
2021/03/21 01:30:14;;;;;;;3.22;0.73;;;;;;;2.72;69.86;93600.78;5090331;28;20116;-73
2021/03/21 01:32:40;;;;;;;1.65;0.98;;;;;;;2.71;70.22;93612.38;5090404;28;20024;-73
2021/03/21 01:35:06;;;;;;;1.10;0.73;;;;;;;2.71;70.24;93625.53;5091720;28;20126;-73
2021/03/21 01:37:33;;;;;;;1.50;0.90;;;;;;;2.66;70.30;93633.44;5090389;28;20031;-74
2021/03/21 01:39:58;;;;;;;2.92;1.00;;;;;;;2.64;70.81;93630.28;5089477;28;20028;-74
2021/03/21 01:42:24;;;;;;;1.98;1.20;;;;;;;2.63;70.75;93641.88;5090097;28;20406;-74
2021/03/21 01:44:54;;;;;;;2.47;1.38;;;;;;;2.63;70.77;93613.72;5090416;28;20035;-73
2021/03/21 01:47:38;;;;;;;3.60;1.70;;;;;;;2.63;70.82;93599.78;5091380;28;20032;-73
2021/03/21 01:50:35;;;;;;;4.07;1.85;;;;;;;2.59;70.89;93605.56;5089319;28;20443;-74
2021/03/21 01:53:01;;;;;;;4.65;2.45;;;;;;;2.56;70.70;93590.31;5089843;28;20051;-72
2021/03/21 01:55:27;;;;;;;7.13;2.88;;;;;;;2.61;70.59;93594.78;5089829;28;20028;-73
2021/03/21 01:57:52;;;;;;;3.60;2.20;;;;;;;2.57;71.00;93591.91;5090026;28;20027;-73
2021/03/21 02:00:20;;;;;;;3.10;1.48;;;;;;;2.59;70.78;93565.31;5089818;28;20498;-73
2021/03/21 02:02:46;;;;;;;2.35;1.10;;;;;;;2.63;70.75;93574.25;5089643;28;20024;-74
2021/03/21 02:05:12;;;;;;;2.92;1.13;;;;;;;2.61;70.76;93574.50;5089898;28;20407;-74
2021/03/21 02:07:53;;;;;;;1.67;1.10;;;;;;;2.60;70.67;93574.78;5089591;28;20028;-74
2021/03/21 02:11:03;;;;;;;1.85;1.10;;;;;;;2.62;70.79;93585.81;5089670;28;20051;-74
2021/03/21 02:13:53;;;;;;;4.70;1.00;;;;;;;2.66;70.52;93578.16;5034956;28;20079;-74
2021/03/21 02:16:30;;;;;;;1.48;0.80;;;;;;;2.61;70.62;93579.78;5089796;28;20028;-74
2021/03/21 02:19:13;;;;;;;1.77;1.10;;;;;;;2.58;70.44;93584.78;5089576;28;20032;-74
2021/03/21 02:21:39;;;;;;;2.45;0.70;;;;;;;2.52;70.75;93576.13;5089502;28;20119;-74
2021/03/21 02:24:38;;;;;;;1.25;0.80;;;;;;;2.57;70.79;93565.59;5090673;28;20104;-73
2021/03/21 02:27:06;;;;;;;1.17;0.68;;;;;;;2.55;70.52;93578.22;5090581;28;20046;-73
2021/03/21 02:29:43;;;;;;;0.55;0.40;;;;;;;2.48;70.57;93564.56;5089175;28;20108;-73
2021/03/21 02:32:30;;;;;;;1.38;0.57;;;;;;;2.47;70.86;93564.84;5089179;28;20407;-73
2021/03/21 02:35:18;;;;;;;0.77;0.52;;;;;;;2.41;70.89;93575.38;5089053;28;20035;-73
2021/03/21 02:38:12;;;;;;;1.55;0.68;;;;;;;2.42;71.22;93568.25;5090914;28;20028;-73
2021/03/21 02:40:43;;;;;;;0.77;0.50;;;;;;;2.39;71.42;93595.91;5088894;28;20044;-72
2021/03/21 02:43:17;;;;;;;0.43;0.40;;;;;;;2.43;71.24;93590.91;5089020;28;20101;-73
2021/03/21 02:45:48;;;;;;;3.42;1.00;;;;;;;2.45;70.91;93583.53;5090683;28;20398;-73
2021/03/21 02:48:25;;;;;;;1.13;0.60;;;;;;;2.44;70.86;93589.03;5089170;28;20016;-73
2021/03/21 02:50:55;;;;;;;0.70;0.63;;;;;;;2.45;70.52;93588.78;5089179;28;20512;-74
2021/03/21 02:53:26;;;;;;;1.17;0.55;;;;;;;2.40;70.67;93580.88;5089859;28;20039;-73
2021/03/21 02:55:56;;;;;;;0.60;0.47;;;;;;;2.34;70.65;93587.22;5088749;28;20491;-73
2021/03/21 02:58:26;;;;;;;1.10;0.73;;;;;;;2.37;71.46;93576.19;5088932;28;20028;-73
2021/03/21 03:01:07;;;;;;;1.17;0.50;;;;;;;2.32;71.45;93573.56;5090031;28;20395;-73
2021/03/21 03:03:36;;;;;;;2.38;0.70;;;;;;;2.33;71.47;93570.66;5088636;28;20034;-73
2021/03/21 03:06:08;;;;;;;1.40;1.00;;;;;;;2.28;71.25;93572.50;5088635;28;20038;-73
2021/03/21 03:08:52;;;;;;;1.00;0.70;;;;;;;2.19;71.37;93575.69;5088532;28;20080;-73
2021/03/21 03:11:17;;;;;;;1.10;0.60;;;;;;;2.08;71.79;93582.06;5088733;28;20448;-73
2021/03/21 03:13:59;;;;;;;1.73;0.90;;;;;;;2.03;72.29;93573.38;5088667;28;20058;-72
2021/03/21 03:16:26;;;;;;;0.60;0.47;;;;;;;2.01;72.28;93573.63;5088549;28;20071;-72
2021/03/21 03:19:11;;;;;;;2.03;0.70;;;;;;;1.98;72.79;93585.47;5088505;28;20024;-72
2021/03/21 03:21:53;;;;;;;0.40;0.40;;;;;;;1.98;72.74;93571.56;5089785;28;20024;-72
2021/03/21 03:24:56;;;;;;;0.70;0.63;;;;;;;2.03;72.77;93571.53;5088285;28;20024;-72
2021/03/21 03:28:00;;;;;;;1.15;0.73;;;;;;;2.04;72.35;93554.72;5088362;28;20016;-72
2021/03/21 03:30:46;;;;;;;1.15;0.73;;;;;;;2.05;72.49;93564.16;5090057;28;20024;-72
2021/03/21 03:33:11;;;;;;;1.75;0.95;;;;;;;2.05;72.57;93558.13;5091304;28;20035;-72
2021/03/21 03:35:38;;;;;;;1.20;0.60;;;;;;;2.06;72.55;93559.72;5092400;28;20040;-72
2021/03/21 03:38:09;;;;;;;1.42;0.70;;;;;;;2.07;72.41;93567.31;5092610;28;20020;-72
2021/03/21 03:40:43;;;;;;;2.65;0.75;;;;;;;1.96;72.68;93563.16;5093938;28;20066;-72
2021/03/21 03:43:22;;;;;;;1.58;0.85;;;;;;;2.01;72.68;93576.25;5091456;28;20036;-72
2021/03/21 03:46:06;;;;;;;1.40;0.82;;;;;;;1.98;72.43;93563.66;5093565;28;20028;-71
2021/03/21 03:48:45;;;;;;;1.45;0.77;;;;;;;2.00;72.53;93577.34;5092493;28;20453;-73
2021/03/21 03:51:18;;;;;;;1.83;0.70;;;;;;;1.98;72.40;93579.44;5092394;28;20474;-74
2021/03/21 03:53:49;;;;;;;2.05;0.93;;;;;;;1.99;72.54;93581.81;5093748;28;20044;-74
2021/03/21 03:56:21;;;;;;;2.22;0.93;;;;;;;2.02;72.15;93575.22;5093635;28;20019;-73
2021/03/21 03:59:20;;;;;;;1.42;0.90;;;;;;;1.96;72.44;93573.66;5092075;28;20028;-73
2021/03/21 04:01:56;;;;;;;1.15;0.77;;;;;;;1.91;72.24;93573.66;5091926;28;20028;-73
2021/03/21 04:04:36;;;;;;;1.60;0.80;;;;;;;1.88;72.52;93574.22;5093417;28;20031;-73
2021/03/21 04:07:10;;;;;;;1.77;0.82;;;;;;;1.86;72.66;93571.06;5093258;28;20034;-73
2021/03/21 04:09:47;;;;;;;1.02;0.80;;;;;;;1.87;73.32;93570.75;5092376;28;20038;-73
2021/03/21 04:12:18;;;;;;;1.38;0.80;;;;;;;1.88;72.74;93566.31;5091753;28;20387;-73
2021/03/21 04:14:54;;;;;;;2.13;1.08;;;;;;;1.86;73.19;93565.81;5091698;28;20035;-73
2021/03/21 04:17:45;;;;;;;1.70;0.82;;;;;;;1.89;73.00;93554.75;5092087;28;20023;-73
2021/03/21 04:20:20;;;;;;;2.22;0.90;;;;;;;1.91;72.62;93563.94;5093317;28;20032;-72
2021/03/21 04:23:11;;;;;;;2.10;0.93;;;;;;;1.91;73.23;93573.66;5093207;28;20031;-73
2021/03/21 04:25:42;;;;;;;1.45;0.80;;;;;;;1.95;73.06;93569.44;5091666;28;20024;-73
2021/03/21 04:28:15;;;;;;;1.75;1.10;;;;;;;2.05;72.50;93579.16;5091553;28;20028;-73
2021/03/21 04:30:45;;;;;;;1.70;0.93;;;;;;;2.07;72.38;93577.06;5091619;28;20032;-72
2021/03/21 04:33:18;;;;;;;2.00;1.23;;;;;;;2.05;72.25;93577.31;5091393;28;20494;-73
2021/03/21 04:35:52;;;;;;;1.58;1.02;;;;;;;2.07;72.39;93572.56;5091566;28;20057;-73
2021/03/21 04:38:32;;;;;;;2.97;1.67;;;;;;;2.08;72.36;93568.13;5093025;28;20077;-73
2021/03/21 04:40:59;;;;;;;2.22;1.30;;;;;;;2.10;72.42;93579.94;5091254;28;20479;-73
2021/03/21 04:43:30;;;;;;;4.07;1.70;;;;;;;2.15;72.27;93573.88;5090978;28;20024;-72
2021/03/21 04:46:01;;;;;;;2.42;1.35;;;;;;;2.18;71.88;93586.50;5091290;28;20036;-72
2021/03/21 04:48:27;;;;;;;1.88;1.10;;;;;;;2.16;72.02;93576.25;5092417;28;20027;-72
2021/03/21 04:51:01;;;;;;;1.85;1.30;;;;;;;2.18;72.07;93578.63;5091403;28;20097;-72
2021/03/21 04:53:48;;;;;;;3.17;1.45;;;;;;;2.21;71.73;93584.09;5090928;28;20051;-72
2021/03/21 04:56:23;;;;;;;8.85;2.80;;;;;;;2.16;71.99;93578.88;5092136;28;20020;-72
2021/03/21 04:58:52;;;;;;;3.00;1.60;;;;;;;2.20;71.84;93556.25;5091285;28;20107;-72
2021/03/21 05:01:31;;;;;;;3.10;1.63;;;;;;;2.21;72.01;93563.06;5092228;28;20060;-72
2021/03/21 05:04:06;;;;;;;4.38;1.60;;;;;;;2.24;71.55;93582.81;5091033;28;20103;-72
2021/03/21 05:06:52;;;;;;;4.63;1.80;;;;;;;2.24;71.79;93582.00;5092174;28;20062;-72
2021/03/21 05:09:23;;;;;;;3.45;2.05;;;;;;;2.26;71.37;93562.28;5092207;28;20036;-72
2021/03/21 05:12:07;;;;;;;4.37;2.80;;;;;;;2.20;71.72;93566.00;5090994;28;20032;-72
2021/03/21 05:14:39;;;;;;;8.38;4.63;;;;;;;2.18;71.91;93561.00;5090930;28;20020;-72
2021/03/21 05:17:07;;;;;;;9.35;5.22;;;;;;;2.12;71.37;93548.91;5091969;28;20028;-72
2021/03/21 05:19:46;;;;;;;14.65;7.53;;;;;;;2.07;72.36;93541.03;5092085;28;20478;-73
2021/03/21 05:22:52;;;;;;;6.15;4.15;;;;;;;2.12;72.33;93537.63;5091936;28;20028;-73
2021/03/21 05:25:30;;;;;;;4.30;3.00;;;;;;;2.02;71.93;93535.00;5090248;28;20036;-73
2021/03/21 05:28:05;;;;;;;4.95;2.95;;;;;;;2.02;72.20;93543.69;5090740;28;20461;-73
2021/03/21 05:30:34;;;;;;;6.88;2.97;;;;;;;2.03;72.64;93544.47;5090490;28;20059;-73
2021/03/21 05:33:00;;;;;;;4.88;2.90;;;;;;;2.04;72.58;93552.09;5090429;28;20111;-73
2021/03/21 05:35:29;;;;;;;5.20;2.92;;;;;;;2.13;72.67;93536.53;5091704;28;20130;-72
2021/03/21 05:38:16;;;;;;;4.07;2.85;;;;;;;2.22;72.37;93553.34;5090522;28;20069;-72
2021/03/21 05:40:59;;;;;;;4.65;2.50;;;;;;;2.32;71.80;93552.50;5091729;28;20038;-72
2021/03/21 05:43:43;;;;;;;7.78;3.38;;;;;;;2.37;71.32;93560.41;5090192;28;20058;-72
2021/03/21 05:46:35;;;;;;;5.55;3.20;;;;;;;2.43;71.45;93553.28;5090260;28;20028;-72
2021/03/21 05:49:19;;;;;;;6.00;2.80;;;;;;;2.43;71.33;93564.59;5052064;28;20035;-72
2021/03/21 05:52:28;;;;;;;7.00;2.60;;;;;;;2.44;70.87;93568.78;5091352;28;20277;-72
2021/03/21 05:54:56;;;;;;;6.70;2.60;;;;;;;2.46;70.96;93569.28;5091237;28;20131;-72
2021/03/21 05:57:59;;;;;;;9.18;2.78;;;;;;;2.51;71.05;93566.66;5089314;28;20072;-73
2021/03/21 06:00:33;;;;;;;5.93;3.45;;;;;;;2.57;70.89;93570.84;5089590;28;20119;-73
2021/03/21 06:03:29;;;;;;;5.15;2.75;;;;;;;2.65;70.51;93576.63;5089672;28;20122;-73
2021/03/21 06:06:16;;;;;;;7.10;3.10;;;;;;;2.66;70.44;93570.28;5089820;28;20042;-73
2021/03/21 06:08:41;;;;;;;6.00;2.60;;;;;;;2.73;70.33;93568.16;5090510;28;20044;-73
2021/03/21 06:11:22;;;;;;;5.07;2.83;;;;;;;2.74;70.10;93565.22;5089353;28;20104;-73
2021/03/21 06:13:51;;;;;;;4.93;2.40;;;;;;;2.76;69.71;93565.75;5089621;28;20051;-73
2021/03/21 06:16:40;;;;;;;6.63;2.78;;;;;;;2.85;68.76;93565.97;5091149;28;20028;-73
2021/03/21 06:19:21;;;;;;;3.22;1.88;;;;;;;2.95;67.90;93560.66;5089643;28;20114;-73
2021/03/21 06:22:11;;;;;;;4.80;2.22;;;;;;;3.00;67.49;93575.63;5089109;28;20030;-73
2021/03/21 06:25:09;;;;;;;3.42;1.88;;;;;;;3.02;66.71;93570.88;5089432;28;20039;-73
2021/03/21 06:28:31;;;;;;;2.90;1.15;;;;;;;3.06;65.91;93581.66;5089410;28;20035;-73
2021/03/21 06:31:00;;;;;;;3.67;1.38;;;;;;;3.08;65.77;93582.19;4990294;28;20034;-73
2021/03/21 06:33:40;;;;;;;3.47;1.48;;;;;;;3.10;66.24;93587.97;5071738;28;20032;-73
2021/03/21 06:36:34;;;;;;;2.20;1.10;;;;;;;3.08;65.56;93590.84;5090769;28;20066;-73
2021/03/21 06:39:21;;;;;;;3.50;1.52;;;;;;;3.09;65.43;93587.16;5089428;28;20074;-73
2021/03/21 06:42:31;;;;;;;6.35;2.33;;;;;;;3.07;65.39;93583.22;5089678;28;20035;-73
2021/03/21 06:45:19;;;;;;;7.38;2.13;;;;;;;3.04;66.18;93589.06;5089064;28;20515;-73
2021/03/21 06:48:03;;;;;;;5.38;2.47;;;;;;;3.04;65.91;93578.53;5088809;28;20098;-73
2021/03/21 06:50:46;;;;;;;5.47;2.00;;;;;;;2.98;65.80;93581.16;5090226;28;20534;-73
2021/03/21 06:53:33;;;;;;;4.93;2.15;;;;;;;3.01;66.29;93574.56;5090007;28;20036;-73
2021/03/21 06:56:22;;;;;;;8.18;1.85;;;;;;;3.01;66.00;93583.28;5090063;28;20556;-73
2021/03/21 06:59:06;;;;;;;2.90;1.20;;;;;;;3.04;66.42;93594.31;5086480;28;20376;-73
2021/03/21 07:01:47;;;;;;;2.65;1.35;;;;;;;3.00;66.31;93589.59;5088596;28;20031;-73
2021/03/21 07:05:00;;;;;;;6.65;1.90;;;;;;;3.07;66.73;93593.75;5088459;28;20093;-72
2021/03/21 07:07:54;;;;;;;3.28;1.42;;;;;;;3.13;66.58;93584.78;5088349;28;20024;-72
2021/03/21 07:10:22;;;;;;;6.45;1.45;;;;;;;3.19;66.77;93587.09;5088516;28;20077;-73
2021/03/21 07:13:12;;;;;;;7.60;2.20;;;;;;;3.17;66.66;93583.94;5088390;28;20049;-73
2021/03/21 07:15:43;;;;;;;7.65;3.53;;;;;;;3.22;66.62;93583.16;5088624;28;20035;-74
2021/03/21 07:18:35;;;;;;;12.60;2.63;;;;;;;3.21;66.49;93582.34;5088527;28;20016;-73
2021/03/21 07:21:20;;;;;;;9.50;3.22;;;;;;;3.19;67.02;93586.31;5085758;28;20094;-74
2021/03/21 07:23:51;;;;;;;10.95;1.85;;;;;;;3.21;67.26;93584.19;5088600;28;20035;-74
2021/03/21 07:26:54;;;;;;;10.68;2.17;;;;;;;3.27;66.92;93583.09;5086117;28;20024;-73
2021/03/21 07:29:20;;;;;;;12.32;1.92;;;;;;;3.36;66.86;93592.00;5088345;28;20105;-73
2021/03/21 07:32:12;;;;;;;9.30;1.60;;;;;;;3.45;66.67;93588.78;5088588;28;20441;-73
2021/03/21 07:34:46;;;;;;;7.97;2.03;;;;;;;3.54;66.14;93587.94;5088341;28;20054;-73
2021/03/21 07:37:27;;;;;;;8.15;1.83;;;;;;;3.57;66.42;93578.69;5089542;28;20028;-72
2021/03/21 07:40:19;;;;;;;2.78;1.20;;;;;;;3.64;65.51;93576.50;5085372;28;20032;-73
2021/03/21 07:42:53;;;;;;;3.20;1.40;;;;;;;3.69;65.00;93573.84;5089509;28;20043;-73
2021/03/21 07:45:26;;;;;;;6.20;1.77;;;;;;;3.73;64.96;93574.06;5089484;28;20039;-73
2021/03/21 07:47:54;;;;;;;2.70;1.50;;;;;;;3.78;65.05;93577.44;5089795;28;20111;-73
2021/03/21 07:50:35;;;;;;;4.05;1.20;;;;;;;3.82;64.77;93572.41;5088346;28;20058;-73
2021/03/21 07:53:09;;;;;;;3.17;1.08;;;;;;;3.92;63.80;93584.72;5089328;28;20030;-73
2021/03/21 07:55:59;;;;;;;3.33;1.52;;;;;;;3.89;63.90;93572.88;5088026;28;20134;-72
2021/03/21 07:58:46;;;;;;;2.17;1.20;;;;;;;3.92;63.20;93574.16;5088257;28;20028;-72
2021/03/21 08:01:12;;;;;;;3.28;1.60;;;;;;;3.92;63.96;93574.16;5086865;28;20047;-72
2021/03/21 08:03:52;;;;;;;1.73;1.08;;;;;;;3.93;63.59;93567.81;5087826;28;20380;-72
2021/03/21 08:06:27;;;;;;;2.35;1.23;;;;;;;3.88;62.94;93565.22;5086892;28;20067;-73
2021/03/21 08:09:01;;;;;;;2.00;1.10;;;;;;;3.87;64.19;93574.19;5084316;28;20036;-71
2021/03/21 08:11:29;;;;;;;3.38;1.50;;;;;;;3.80;63.79;93554.22;5088235;28;20024;-71
2021/03/21 08:14:02;;;;;;;3.85;1.90;;;;;;;3.81;64.41;93555.81;5089402;28;20185;-74
2021/03/21 08:16:37;;;;;;;6.00;2.75;;;;;;;3.91;65.37;93548.84;5085276;28;20491;-74
2021/03/21 08:19:02;;;;;;;3.35;1.80;;;;;;;3.99;66.25;93545.63;5089977;28;20082;-73
2021/03/21 08:21:30;;;;;;;3.53;1.73;;;;;;;4.05;65.59;93536.59;5091449;28;20372;-74
2021/03/21 08:24:06;;;;;;;8.13;2.00;;;;;;;4.09;65.26;93534.97;5092563;28;20035;-74
2021/03/21 08:26:32;;;;;;;2.50;1.08;;;;;;;4.06;65.89;93527.59;5093079;28;20032;-74
2021/03/21 08:29:06;;;;;;;3.95;0.75;;;;;;;4.11;65.03;93532.84;5092839;28;20509;-75
2021/03/21 08:31:46;;;;;;;3.58;1.45;;;;;;;4.17;65.13;93537.00;5092446;28;20089;-73
2021/03/21 08:34:37;;;;;;;7.18;1.40;;;;;;;4.21;62.49;93535.38;5091304;28;20020;-74
2021/03/21 08:37:18;;;;;;;3.20;1.10;;;;;;;4.17;63.66;93523.81;5091204;28;20186;-74
2021/03/21 08:39:48;;;;;;;5.03;1.30;;;;;;;4.21;62.47;93530.09;5091264;28;20466;-74
2021/03/21 08:42:25;;;;;;;16.35;1.58;;;;;;;4.28;63.16;93521.84;5091479;28;20024;-76
2021/03/21 08:44:51;;;;;;;7.32;1.55;;;;;;;4.34;62.97;93519.94;5092524;28;20035;-75
2021/03/21 08:47:24;;;;;;;3.55;1.40;;;;;;;4.28;62.37;93519.19;5091119;28;20031;-75
2021/03/21 08:49:53;;;;;;;7.28;1.33;;;;;;;4.27;63.34;93503.63;5092542;28;20074;-76
2021/03/21 08:52:30;;;;;;;2.95;1.33;;;;;;;4.30;62.68;93511.00;5091211;28;20161;-75
2021/03/21 08:54:58;;;;;;;4.00;1.48;;;;;;;4.34;62.87;93510.16;5090865;28;20036;-75
2021/03/21 08:57:35;;;;;;;4.78;2.00;;;;;;;4.31;63.05;93512.56;5091786;28;20035;-76
2021/03/21 09:00:19;;;;;;;6.80;2.40;;;;;;;4.41;62.68;93507.16;5090591;28;20040;-75
2021/03/21 09:02:45;;;;;;;3.78;1.10;;;;;;;4.50;62.61;93499.41;5091076;28;20475;-75
2021/03/21 09:05:13;;;;;;;9.07;1.55;;;;;;;4.59;62.64;93498.47;5092127;28;20085;-76
2021/03/21 09:08:03;;;;;;;2.65;1.33;;;;;;;4.68;61.61;93503.13;5090415;28;21407;-76
2021/03/21 09:10:51;;;;;;;2.97;1.08;;;;;;;4.78;61.13;93489.78;5090358;28;20043;-75
2021/03/21 09:13:21;;;;;;;5.57;1.30;;;;;;;4.76;61.03;93489.28;5087985;28;20031;-75
2021/03/21 09:16:01;;;;;;;5.25;1.60;;;;;;;4.91;60.75;93486.44;5091866;28;20042;-74
2021/03/21 09:18:33;;;;;;;6.10;1.50;;;;;;;5.06;60.67;93482.00;5090548;28;20502;-75
2021/03/21 09:21:02;;;;;;;2.42;0.90;;;;;;;5.19;59.73;93473.34;5090273;28;20028;-75
2021/03/21 09:23:35;;;;;;;2.65;1.20;;;;;;;5.35;59.92;93474.69;5091099;28;20116;-75
2021/03/21 09:26:04;;;;;;;4.72;1.10;;;;;;;5.48;59.04;93478.44;5090248;28;20187;-76
2021/03/21 09:28:33;;;;;;;2.42;1.25;;;;;;;5.53;58.99;93478.34;5090134;28;20123;-75
2021/03/21 09:31:09;;;;;;;3.13;1.15;;;;;;;5.65;58.80;93475.25;5089139;28;20024;-75
2021/03/21 09:33:41;;;;;;;6.05;1.40;;;;;;;5.76;58.13;93471.34;5089626;28;20111;-75
2021/03/21 09:36:22;;;;;;;4.60;1.17;;;;;;;5.89;57.69;93476.94;5090262;28;20123;-75
2021/03/21 09:39:03;;;;;;;2.55;1.40;;;;;;;5.98;57.37;93475.22;5090197;28;20040;-75
2021/03/21 09:41:28;;;;;;;4.38;1.20;;;;;;;6.01;56.92;93472.78;5089516;28;20078;-74
2021/03/21 09:44:01;;;;;;;4.72;1.50;;;;;;;6.16;57.26;93478.84;5091875;28;20059;-75
2021/03/21 09:46:45;;;;;;;3.58;1.83;;;;;;;6.21;56.50;93476.13;5089598;28;20028;-75
2021/03/21 09:49:25;;;;;;;3.72;1.52;;;;;;;6.29;55.92;93479.91;5090900;28;20131;-75
2021/03/21 09:52:17;;;;;;;3.97;1.48;;;;;;;6.32;56.53;93471.41;5089800;28;20050;-75
2021/03/21 09:55:13;;;;;;;3.78;1.50;;;;;;;6.32;55.71;93480.13;5058153;28;20059;-75
2021/03/21 09:58:11;;;;;;;2.92;1.30;;;;;;;6.20;55.26;93459.44;5089924;28;20024;-75
2021/03/21 10:00:39;;;;;;;3.33;1.20;;;;;;;6.09;55.82;93458.06;5089290;28;20068;-75
2021/03/21 10:03:09;;;;;;;2.95;1.40;;;;;;;5.99;55.57;93456.41;5091264;28;20244;-75
2021/03/21 10:05:56;;;;;;;2.78;1.20;;;;;;;5.90;55.98;93455.47;5089272;28;20094;-75
2021/03/21 10:08:46;;;;;;;2.97;1.60;;;;;;;5.90;56.30;93457.34;5090742;28;20028;-75
2021/03/21 10:11:39;;;;;;;2.83;1.65;;;;;;;5.80;56.71;93453.03;5084983;28;20035;-75
2021/03/21 10:14:37;;;;;;;3.22;1.88;;;;;;;5.97;56.37;93452.50;5089428;28;20035;-75
2021/03/21 10:17:18;;;;;;;3.45;1.98;;;;;;;5.95;56.17;93450.13;5046086;28;20388;-75
2021/03/21 10:19:51;;;;;;;5.38;2.03;;;;;;;5.89;56.32;93453.16;5090154;28;20034;-75
2021/03/21 10:22:28;;;;;;;8.15;2.50;;;;;;;5.90;56.65;93446.75;5089196;28;20036;-74
2021/03/21 10:25:21;;;;;;;3.70;2.10;;;;;;;5.97;56.47;93453.28;5090171;28;20088;-75
2021/03/21 10:27:51;;;;;;;10.68;2.65;;;;;;;5.97;56.72;93447.97;5089680;28;20234;-75
2021/03/21 10:30:31;;;;;;;5.38;2.33;;;;;;;6.02;56.76;93460.31;5089222;28;20503;-75
2021/03/21 10:32:59;;;;;;;4.00;1.80;;;;;;;6.01;56.13;93437.59;5090314;28;20471;-75
2021/03/21 10:35:24;;;;;;;2.50;1.40;;;;;;;5.94;55.70;93445.09;5090379;28;20182;-75
2021/03/21 10:38:03;;;;;;;7.15;1.83;;;;;;;5.91;56.20;93440.41;5090150;28;20564;-75
2021/03/21 10:40:28;;;;;;;2.45;1.65;;;;;;;5.82;55.79;93435.81;5089204;28;20023;-75
2021/03/21 10:43:03;;;;;;;8.77;2.17;;;;;;;5.79;57.47;93436.38;5087935;28;20089;-75
2021/03/21 10:45:35;;;;;;;3.85;2.03;;;;;;;5.81;56.32;93426.28;5088822;28;20371;-75
2021/03/21 10:48:26;;;;;;;2.58;1.80;;;;;;;5.85;56.32;93423.84;5087646;28;20034;-75
2021/03/21 10:51:05;;;;;;;6.72;3.15;;;;;;;5.95;56.10;93417.63;5087683;28;20040;-74
2021/03/21 10:53:39;;;;;;;8.05;2.58;;;;;;;6.03;56.04;93415.06;5089976;28;20044;-74
2021/03/21 10:56:14;;;;;;;8.45;2.45;;;;;;;6.08;55.40;93406.22;5089851;28;20129;-74
2021/03/21 10:58:45;;;;;;;6.78;1.92;;;;;;;6.12;55.35;93411.72;5088564;28;20031;-74
2021/03/21 11:01:20;;;;;;;4.55;2.22;;;;;;;6.17;55.69;93424.84;5088520;28;20027;-74
2021/03/21 11:03:58;;;;;;;10.40;3.47;;;;;;;6.16;55.28;93410.03;5088608;28;20487;-74
2021/03/21 11:06:27;;;;;;;6.72;2.80;;;;;;;6.15;55.33;93411.91;5090003;28;20028;-74
2021/03/21 11:08:53;;;;;;;4.97;2.28;;;;;;;6.20;55.32;93413.66;5088229;28;20059;-74
2021/03/21 11:11:33;;;;;;;4.80;2.28;;;;;;;6.30;55.21;93399.44;5088029;28;20110;-74
2021/03/21 11:14:14;;;;;;;4.82;2.08;;;;;;;6.31;55.62;93399.16;5088015;28;20027;-74
2021/03/21 11:16:40;;;;;;;5.63;1.95;;;;;;;6.37;55.22;93395.31;5088476;28;20035;-71
2021/03/21 11:19:12;;;;;;;52.88;4.15;;;;;;;6.40;57.97;93407.94;5088012;28;20028;-71
2021/03/21 11:21:38;;;;;;;3.15;2.05;;;;;;;6.52;54.85;93394.19;5088598;28;20024;-72
2021/03/21 11:24:17;;;;;;;5.43;2.00;;;;;;;6.58;55.28;93389.59;5087791;28;20074;-71
2021/03/21 11:26:43;;;;;;;3.38;1.80;;;;;;;6.65;54.66;93391.81;5088392;28;20111;-71
2021/03/21 11:29:12;;;;;;;6.45;3.58;;;;;;;6.71;54.70;93390.59;5087980;28;20575;-73
2021/03/21 11:31:52;;;;;;;4.90;2.05;;;;;;;6.77;55.15;93387.53;5088310;28;20038;-72
2021/03/21 11:34:33;;;;;;;4.43;2.22;;;;;;;6.84;55.04;93387.13;5089885;28;20042;-72
2021/03/21 11:37:02;;;;;;;4.32;2.05;;;;;;;6.97;54.87;93386.28;5088139;28;20016;-71
2021/03/21 11:39:35;;;;;;;3.88;1.75;;;;;;;7.02;55.60;93375.56;5088304;28;20469;-72
2021/03/21 11:42:02;;;;;;;6.95;3.72;;;;;;;7.03;54.96;93369.19;5089224;28;20097;-70
2021/03/21 11:44:32;;;;;;;5.53;2.90;;;;;;;7.05;54.91;93363.59;5088252;28;20559;-71
2021/03/21 11:47:29;;;;;;;7.93;2.92;;;;;;;7.13;54.50;93368.16;5087907;28;20105;-70
2021/03/21 11:49:57;;;;;;;3.65;2.03;;;;;;;7.06;54.31;93357.19;5078352;28;20419;-71
2021/03/21 11:52:23;;;;;;;4.07;1.65;;;;;;;7.02;55.41;93357.03;5089291;28;20424;-72
2021/03/21 11:54:50;;;;;;;6.32;1.83;;;;;;;7.13;54.94;93349.59;5090626;28;20052;-72
2021/03/21 11:57:25;;;;;;;2.65;1.40;;;;;;;7.11;54.37;93351.78;5093104;28;20024;-72
2021/03/21 11:59:58;;;;;;;2.38;1.40;;;;;;;7.01;55.62;93352.03;5091999;28;20118;-71
2021/03/21 12:02:32;;;;;;;6.00;2.03;;;;;;;7.10;56.26;93346.78;5090994;28;20028;-71
2021/03/21 12:05:01;;;;;;;4.43;2.35;;;;;;;7.11;55.41;93337.75;5093277;28;20039;-72
2021/03/21 12:07:29;;;;;;;5.30;2.05;;;;;;;7.12;56.25;93336.66;5091746;28;20531;-72
2021/03/21 12:09:55;;;;;;;4.18;2.20;;;;;;;7.16;55.44;93327.00;5091680;28;20107;-72
2021/03/21 12:12:32;;;;;;;6.20;2.60;;;;;;;7.21;55.87;93330.31;5091540;28;20151;-73
2021/03/21 12:14:58;;;;;;;3.55;1.92;;;;;;;7.24;55.78;93323.63;5088121;28;20024;-73
2021/03/21 12:17:23;;;;;;;4.60;1.77;;;;;;;7.33;54.78;93316.50;5091440;28;20055;-73
2021/03/21 12:19:54;;;;;;;4.28;2.25;;;;;;;7.39;55.80;93306.53;5091746;28;20130;-71
2021/03/21 12:22:33;;;;;;;3.30;1.85;;;;;;;7.56;54.59;93303.16;5091082;28;20092;-71
2021/03/21 12:25:01;;;;;;;2.72;1.48;;;;;;;7.61;54.58;93290.56;5091142;28;20032;-71